Huvudsida
METAR-TAF:

METAR-TAF

Flygplatser :

Lima, Peru

latitud: 12-00S, longitud: 077-07W, höjd: 12 m

Aktuellt väderrapport

Denna rapport gjordes för 36 minuter sedan, klockan 08:00 UTC
Vind 7 kt från syd
Temperatur 17°C
Fuktighet 88%
Tryck 1014 hPa
Sikt 10 km eller mer
Mulet på en höjd av 2300 ft

METAR: SPJC 160800Z 17007KT 9999 OVC023 17/15 Q1014 NOSIG RMK PP000

Tid: 03:36 (08:36 UTC)

Väderprognos

Denna rapport gjordes för 3 timmar och 36 minuter sedan, klockan 05:00 UTC
Prognos gäller från 16 kl. 06 UTC till 17 kl. 06 UTC
Vind 10 kt från syd
Sikt 10 km eller mer
Mulet på en höjd av 2000 ft
Blir
från 16 kl. 08 UTC till 16 kl. 10 UTC
Mulet på en höjd av 1500 ft
Blir
från 16 kl. 14 UTC till 16 kl. 16 UTC
Mulet på en höjd av 2000 ft

TAF: SPJC 160500Z 1606/1706 18010KT 9999 OVC020 TX20/1619Z TN16/1610Z BECMG 1608/1610 OVC015 BECMG 1614/1616 OVC020

Aktuella väderrapporter och prognoser från 4000 flygplatser (METAR- och TAF-rapporter).

De tillgängliga stationerna syns som gula och röda prickar på kartan.

För musen över prickarna för att se namnen på stationerna.

Klicka sedan för att få väderrapporter och prognoser.

För att ändra kartan: Klicka på de gröna knapparna med ett svart kors på för att zooma in; den gröna knappen med ett streck på för att zooma ut; eller på de gröna pilarna för angränsande kartor.


METAR-TAF: